• Join FlightAware (Why Join?)
  • Login
  • US Flag 
05:42PM EST


 

Airport Tracker/Info


-or-


 

Live Flight TrackerFlight Track Log ✈ CTL16 ✈ 27-Jun-2013 ✈ KHAO - KBKL

Flight Track Log - Related Links

Times and Time Zones

All times are in EDT time to prevent confusion due to time zone crossing. See the CTL16 flight status page for this flight to view local times or setup timezone preferences in your user account.

Time Position Orientation Groundspeed Altitude Reporting Facility
EDT Latitude Longitude Course Direction KTS MPH feet Rate Location/Type
09:16PM 39.4333 -84.4167 45° Northeast 147 169 2,700  Level Cincinnati TRACON
09:17PM 39.4644 -84.3764 45° Northeast 157 181 3,100 360 Climbing Indianapolis Center
09:17PM 39.4822 -84.3550 43° Northeast 155 178 3,300 360 Climbing Indianapolis Center
09:18PM 39.4989 -84.3311 48° Northeast 159 183 3,500 420 Climbing Indianapolis Center
09:19PM 39.5322 -84.2936 41° Northeast 158 182 4,000 360 Climbing Indianapolis Center
09:20PM 39.5597 -84.2550 47° Northeast 157 181 4,200 180 Climbing Indianapolis Center
09:20PM 39.5778 -84.2342 42° Northeast 158 182 4,300 360 Climbing Indianapolis Center
09:21PM 39.6081 -84.1939 46° Northeast 157 181 4,800 420 Climbing Indianapolis Center
09:22PM 39.6383 -84.1583 42° Northeast 152 175 5,200 540 Climbing Indianapolis Center
09:23PM 39.6672 -84.1231 43° Northeast 146 168 6,000 660 Climbing Indianapolis Center
09:24PM 39.6914 -84.0942 43° Northeast 131 151 6,600 480 Climbing Indianapolis Center
09:25PM 39.7167 -84.0631 43° Northeast 125 144 7,000 240 Climbing Indianapolis Center
09:26PM 39.7358 -84.0411 41° Northeast 147 169 7,000  Level Indianapolis Center
09:27PM 39.7697 -83.9981 44° Northeast 156 180 7,000  Level Indianapolis Center
09:27PM 39.7797 -83.9847 46° Northeast 151 174 7,000  Level Indianapolis Center
09:28PM 39.8125 -83.9453 43° Northeast 157 181 7,000  Level Indianapolis Center
09:30PM 39.8506 -83.8978 44° Northeast 160 184 7,000  Level Indianapolis Center
09:31PM 39.8831 -83.8572 44° Northeast 160 184 7,000  Level Indianapolis Center
09:32PM 39.9153 -83.8161 44° Northeast 161 185 7,000 -120 Level Indianapolis Center
09:33PM 39.9481 -83.7747 44° Northeast 161 185 6,800 -420 Descending Indianapolis Center
09:34PM 39.9836 -83.7294 44° Northeast 168 193 6,200 -660 Descending Indianapolis Center
09:35PM 40.0206 -83.6817 45° Northeast 178 205 5,500 -600 Descending Indianapolis Center
09:36PM 40.0572 -83.6353 44° Northeast 181 208 5,000 -300 Descending Indianapolis Center
09:37PM 40.0919 -83.5911 44° Northeast 177 204 4,900  Descending Indianapolis Center
09:38PM 40.1217 -83.5492 47° Northeast 165 190 5,000  Climbing Indianapolis Center
09:39PM 40.1528 -83.5081 45° Northeast 159 183 5,000  Level Indianapolis Center
09:40PM 40.1856 -83.4653 45° Northeast 161 185 5,000  Level Indianapolis Center
09:41PM 40.2172 -83.4231 46° Northeast 161 185 5,000  Level Indianapolis Center
09:42PM 40.2508 -83.3811 44° Northeast 163 188 5,100  Climbing Indianapolis Center
09:43PM 40.2892 -83.3319 44° Northeast 162 186 5,100 -60 Level Indianapolis Center
09:44PM 40.3214 -83.2903 45° Northeast 164 189 5,000 -300 Descending Indianapolis Center
09:45PM 40.3553 -83.2472 44° Northeast 165 190 4,600 -480 Descending Indianapolis Center
09:46PM 40.3917 -83.2003 44° Northeast 174 200 4,100 -480 Descending Indianapolis Center
09:47PM 40.4289 -83.1531 44° Northeast 180 207 3,700 -360 Descending Indianapolis Center
09:48PM 40.4647 -83.1050 46° Northeast 181 208 3,400 -360 Descending Indianapolis Center
09:49PM 40.5000 -83.0572 46° Northeast 181 208 3,000 -240 Descending Indianapolis Center
09:50PM 40.5342 -83.0103 46° Northeast 179 206 3,000  Level Indianapolis Center
09:51PM 40.5678 -82.9656 45° Northeast 172 198 3,100  Climbing Indianapolis Center
09:52PM 40.6058 -82.9386 28° Northeast 156 180 3,000 -60 Descending Indianapolis Center
09:53PM 40.6381 -82.9050 38° Northeast 151 174 3,000  Level Indianapolis Center
09:54PM 40.6661 -82.8592 51° Northeast 153 176 3,000  Level Indianapolis Center
09:55PM 40.6953 -82.8183 47° Northeast 151 174 3,000  Level Indianapolis Center
09:56PM 40.7253 -82.7781 45° Northeast 153 176 3,000  Level Indianapolis Center
09:57PM 40.7544 -82.7369 47° Northeast 152 175 3,000  Level Indianapolis Center